Terminal Aerodrome Forecast
Issued by NWS

Home | Current Version | Previous Version | Text Only | Print | Product List | Glossary Off
Versions: 1 2 3 4 5 6 7 8 9 10 11 12 13 14 15 16 17 18 19 20 21 22 23 24 25 26 27 28 29 30 31 32 33 34 35 36 37 38 39 40 41 42

000
FTUS43 KGRB 071737
TAFRHI
TAF
KRHI 071737Z 0718/0818 26015G25KT 5SM -SN OVC022
      TEMPO 0718/0722 2SM -SHSN BKN018
     FM080000 25013G21KT P6SM -SN OVC020
     FM081000 29013G20KT P6SM -SN OVC016
     FM081200 30013G22KT 3SM -SHSN BKN012 OVC020 PROB30 0812/0818
      1SM -SHSN BKN010=

USA.gov is the U.S. government's official web portal to all federal, state and local government web resources and services.